Tillamook, OR (97141)

10:29 PM PST on February 19, 2017 (GMT -0800)
Greentree Ridge | | Change Station

Elev 197 ft 45.45 °N, 123.78 °W | Updated 51 seconds ago

Overcast
Overcast
43.0 °F
Feels Like 43 °F
N
1.6
Wind Variable Wind from SE
Gusts 1.6 mph

Today
High -- | Low -- °F
--% Chance of Precip.
Yesterday
High -- | Low -- °F
Precip. -- in
Pressure 29.62 in
Visibility 10.0 miles
Clouds Scattered Clouds 3300 ft
Mostly Cloudy 5000 ft
Overcast 6500 ft
Windchill 43 °F
Dew Point 42 °F
Humidity 98%
Rainfall 1.62 in
Snow Depth Not available.
7:10 AM 5:48 PM
Last Quarter, 36% visible
METAR KTMK 200615Z AUTO 03005KT 10SM -RA SCT033 BKN050 OVC065 06/05 A2962 RMK AO2
Pressure 29.62 in
Visibility 10.0 miles
Clouds Scattered Clouds 3300 ft
Mostly Cloudy 5000 ft
Overcast 6500 ft
Windchill 43 °F
Dew Point 42 °F
Humidity 98%
Rainfall 1.62 in
Snow Depth Not available.
7:10 AM 5:48 PM
Last Quarter, 36% visible
METAR KTMK 200615Z AUTO 03005KT 10SM -RA SCT033 BKN050 OVC065 06/05 A2962 RMK AO2

Get Your Daily Forecast Email!

Thanks for signing up!

Be on the lookout for a verification email in your inbox.

You'll start receiving the daily forecast at 8 AM.

×

10-Day Weather Forecast

Almanac

Astronomy

Feb. 19, 2017 Rise Set
Actual Time
Civil Twilight
Nautical Twilight
Astronomical Twilight
Moon
Length of Visible Light
Length of Day
Tomorrow will be .
, % of the Moon is Illuminated

Today's Extremes

State Highs State Lows

Community

WunderPhotos

Upload Photos

1,962,540 photos uploaded!

WunderBlog® & News

Nearby

Air Quality

  Air Quality AQ Index Pollutant
Not available.

Snow Depth

Station Depth Elevation

Earthquake Activity

City Distance Mag. Time & Date
Minimum magnitude displayed is 2.5.

Coastal Water Temperatures

Place Temperature

Stations

Nearby Weather Stations

Station Location Temp. Windchill Dew Point Humidity Wind Precip. Elev Updated Type
                   

Watches & Warnings

Small Craft for Hazardous Seas Advisory
Issued: 9:01 PM PST Feb. 19, 2017 – National Weather Service

... Small Craft Advisory for hazardous seas now in effect until
4 PM PST Monday...


* seas... 10 to 12 ft through tonight and early Monday. Seas
subside later Monday.


Precautionary/preparedness actions...

A Small Craft Advisory for hazardous seas means that waves are
expected to be hazardous to small craft. Mariners should avoid
shoaling areas. Long period swell can sharpen into large breaking
waves in shoaling areas. It is not unusual for waves to break
much farther from shoaling areas than is normally experienced.
Remember... breaking waves can easily capsize even larger vessels.